sensor_id;sensor_type;location;lat;lon;timestamp;temperature;humidity
58517;DHT22;44308;50.810;0.284;2022-12-29T00:01:45;10.30;99.90
58517;DHT22;44308;50.810;0.284;2022-12-29T00:04:13;10.50;99.90
58517;DHT22;44308;50.810;0.284;2022-12-29T00:06:39;10.40;99.90
58517;DHT22;44308;50.810;0.284;2022-12-29T00:09:05;10.60;99.90
58517;DHT22;44308;50.810;0.284;2022-12-29T00:11:31;10.80;99.90
58517;DHT22;44308;50.810;0.284;2022-12-29T00:13:57;10.60;99.90
58517;DHT22;44308;50.810;0.284;2022-12-29T00:17:02;10.60;99.90
58517;DHT22;44308;50.810;0.284;2022-12-29T00:19:28;10.90;99.90
58517;DHT22;44308;50.810;0.284;2022-12-29T00:22:13;11.00;99.90
58517;DHT22;44308;50.810;0.284;2022-12-29T00:24:58;11.00;99.90
58517;DHT22;44308;50.810;0.284;2022-12-29T00:27:28;11.00;99.90
58517;DHT22;44308;50.810;0.284;2022-12-29T00:30:16;11.10;99.90
58517;DHT22;44308;50.810;0.284;2022-12-29T00:33:00;11.10;99.90
58517;DHT22;44308;50.810;0.284;2022-12-29T00:36:27;10.90;99.90
58517;DHT22;44308;50.810;0.284;2022-12-29T00:39:01;10.70;99.90
58517;DHT22;44308;50.810;0.284;2022-12-29T00:41:46;10.70;99.90
58517;DHT22;44308;50.810;0.284;2022-12-29T00:44:31;10.70;99.90
58517;DHT22;44308;50.810;0.284;2022-12-29T00:47:16;10.90;99.90
58517;DHT22;44308;50.810;0.284;2022-12-29T00:49:42;10.80;99.90
58517;DHT22;44308;50.810;0.284;2022-12-29T00:52:12;10.50;99.90
58517;DHT22;44308;50.810;0.284;2022-12-29T00:54:39;10.60;99.90
58517;DHT22;44308;50.810;0.284;2022-12-29T00:57:08;10.60;99.90
58517;DHT22;44308;50.810;0.284;2022-12-29T00:59:35;10.90;99.90
58517;DHT22;44308;50.810;0.284;2022-12-29T01:02:01;10.80;99.90
58517;DHT22;44308;50.810;0.284;2022-12-29T01:04:27;10.70;99.90
58517;DHT22;44308;50.810;0.284;2022-12-29T01:09:58;10.60;99.90
58517;DHT22;44308;50.810;0.284;2022-12-29T01:12:36;10.90;99.90
58517;DHT22;44308;50.810;0.284;2022-12-29T01:15:11;10.90;99.90
58517;DHT22;44308;50.810;0.284;2022-12-29T01:17:37;10.90;99.90
58517;DHT22;44308;50.810;0.284;2022-12-29T01:20:03;10.90;99.90
58517;DHT22;44308;50.810;0.284;2022-12-29T01:22:30;10.90;99.90
58517;DHT22;44308;50.810;0.284;2022-12-29T01:24:56;10.60;99.90
58517;DHT22;44308;50.810;0.284;2022-12-29T01:27:22;10.60;99.90
58517;DHT22;44308;50.810;0.284;2022-12-29T01:29:48;10.60;99.90
58517;DHT22;44308;50.810;0.284;2022-12-29T01:32:13;10.80;99.90
58517;DHT22;44308;50.810;0.284;2022-12-29T01:34:39;10.70;99.90
58517;DHT22;44308;50.810;0.284;2022-12-29T01:37:07;10.90;99.90
58517;DHT22;44308;50.810;0.284;2022-12-29T01:39:33;10.60;99.90
58517;DHT22;44308;50.810;0.284;2022-12-29T01:42:01;10.30;99.90
58517;DHT22;44308;50.810;0.284;2022-12-29T01:50:33;9.90;99.90
58517;DHT22;44308;50.810;0.284;2022-12-29T01:53:05;10.00;99.90
58517;DHT22;44308;50.810;0.284;2022-12-29T01:55:39;10.10;99.90
58517;DHT22;44308;50.810;0.284;2022-12-29T01:58:06;10.10;99.90
58517;DHT22;44308;50.810;0.284;2022-12-29T02:00:33;10.30;99.90
58517;DHT22;44308;50.810;0.284;2022-12-29T02:02:58;10.10;99.90
58517;DHT22;44308;50.810;0.284;2022-12-29T02:08:02;10.20;99.90
58517;DHT22;44308;50.810;0.284;2022-12-29T02:10:30;10.30;99.90
58517;DHT22;44308;50.810;0.284;2022-12-29T02:12:57;9.70;99.90
58517;DHT22;44308;50.810;0.284;2022-12-29T02:18:09;9.40;99.90
58517;DHT22;44308;50.810;0.284;2022-12-29T02:24:16;9.40;99.90
58517;DHT22;44308;50.810;0.284;2022-12-29T02:30:05;9.60;99.90
58517;DHT22;44308;50.810;0.284;2022-12-29T02:35:50;9.70;99.90
58517;DHT22;44308;50.810;0.284;2022-12-29T02:41:32;9.70;99.90
58517;DHT22;44308;50.810;0.284;2022-12-29T02:49:07;10.20;99.90
58517;DHT22;44308;50.810;0.284;2022-12-29T02:51:43;10.20;99.90
58517;DHT22;44308;50.810;0.284;2022-12-29T02:54:10;10.00;99.90
58517;DHT22;44308;50.810;0.284;2022-12-29T03:11:18;9.70;99.90
58517;DHT22;44308;50.810;0.284;2022-12-29T03:14:11;9.90;99.90
58517;DHT22;44308;50.810;0.284;2022-12-29T03:17:06;9.90;99.90
58517;DHT22;44308;50.810;0.284;2022-12-29T03:19:37;10.00;99.90
58517;DHT22;44308;50.810;0.284;2022-12-29T03:22:14;9.70;99.90
58517;DHT22;44308;50.810;0.284;2022-12-29T03:25:10;9.90;99.90
58517;DHT22;44308;50.810;0.284;2022-12-29T03:27:47;10.20;99.90
58517;DHT22;44308;50.810;0.284;2022-12-29T03:30:14;10.30;99.90
58517;DHT22;44308;50.810;0.284;2022-12-29T03:32:45;10.20;99.90
58517;DHT22;44308;50.810;0.284;2022-12-29T03:35:14;10.50;99.90
58517;DHT22;44308;50.810;0.284;2022-12-29T03:37:45;10.50;99.90
58517;DHT22;44308;50.810;0.284;2022-12-29T03:40:13;10.30;99.90
58517;DHT22;44308;50.810;0.284;2022-12-29T03:42:39;10.70;99.90
58517;DHT22;44308;50.810;0.284;2022-12-29T03:45:07;10.70;99.90
58517;DHT22;44308;50.810;0.284;2022-12-29T03:47:33;10.80;99.90
58517;DHT22;44308;50.810;0.284;2022-12-29T03:49:58;10.70;99.90
58517;DHT22;44308;50.810;0.284;2022-12-29T03:52:24;10.70;99.90
58517;DHT22;44308;50.810;0.284;2022-12-29T03:54:50;10.50;99.90
58517;DHT22;44308;50.810;0.284;2022-12-29T03:57:34;10.70;99.90
58517;DHT22;44308;50.810;0.284;2022-12-29T04:00:00;10.90;99.90
58517;DHT22;44308;50.810;0.284;2022-12-29T04:02:26;10.60;99.90
58517;DHT22;44308;50.810;0.284;2022-12-29T04:04:52;10.60;99.90
58517;DHT22;44308;50.810;0.284;2022-12-29T04:07:18;10.70;99.90
58517;DHT22;44308;50.810;0.284;2022-12-29T04:09:44;10.60;99.90
58517;DHT22;44308;50.810;0.284;2022-12-29T04:12:09;10.60;99.90
58517;DHT22;44308;50.810;0.284;2022-12-29T04:14:35;10.80;99.90
58517;DHT22;44308;50.810;0.284;2022-12-29T04:17:22;10.90;99.90
58517;DHT22;44308;50.810;0.284;2022-12-29T04:19:47;10.90;99.90
58517;DHT22;44308;50.810;0.284;2022-12-29T04:22:13;10.70;99.90
58517;DHT22;44308;50.810;0.284;2022-12-29T04:24:39;10.60;99.90
58517;DHT22;44308;50.810;0.284;2022-12-29T04:30:46;10.90;99.90
58517;DHT22;44308;50.810;0.284;2022-12-29T04:33:12;10.80;99.90
58517;DHT22;44308;50.810;0.284;2022-12-29T04:35:42;10.60;99.90
58517;DHT22;44308;50.810;0.284;2022-12-29T04:38:07;10.60;99.90
58517;DHT22;44308;50.810;0.284;2022-12-29T04:40:33;10.60;99.90
58517;DHT22;44308;50.810;0.284;2022-12-29T04:42:59;11.00;99.90
58517;DHT22;44308;50.810;0.284;2022-12-29T04:45:27;10.80;99.90
58517;DHT22;44308;50.810;0.284;2022-12-29T04:47:55;10.90;99.90
58517;DHT22;44308;50.810;0.284;2022-12-29T04:50:21;11.10;99.90
58517;DHT22;44308;50.810;0.284;2022-12-29T04:52:47;10.90;99.90
58517;DHT22;44308;50.810;0.284;2022-12-29T04:55:12;11.20;99.90
58517;DHT22;44308;50.810;0.284;2022-12-29T04:57:38;11.00;99.90
58517;DHT22;44308;50.810;0.284;2022-12-29T05:00:04;11.20;99.90
58517;DHT22;44308;50.810;0.284;2022-12-29T05:02:30;11.00;99.90
58517;DHT22;44308;50.810;0.284;2022-12-29T05:04:56;10.70;99.90
58517;DHT22;44308;50.810;0.284;2022-12-29T05:10:11;10.70;99.90
58517;DHT22;44308;50.810;0.284;2022-12-29T05:12:37;10.60;99.90
58517;DHT22;44308;50.810;0.284;2022-12-29T05:15:05;10.20;99.90
58517;DHT22;44308;50.810;0.284;2022-12-29T05:20:36;10.60;99.90
58517;DHT22;44308;50.810;0.284;2022-12-29T05:23:02;10.70;99.90
58517;DHT22;44308;50.810;0.284;2022-12-29T05:25:30;10.80;99.90
58517;DHT22;44308;50.810;0.284;2022-12-29T05:27:56;10.80;99.90
58517;DHT22;44308;50.810;0.284;2022-12-29T05:30:22;10.90;99.90
58517;DHT22;44308;50.810;0.284;2022-12-29T05:32:47;10.50;99.90
58517;DHT22;44308;50.810;0.284;2022-12-29T05:35:13;10.40;99.90
58517;DHT22;44308;50.810;0.284;2022-12-29T05:37:39;10.30;99.90
58517;DHT22;44308;50.810;0.284;2022-12-29T05:40:05;10.40;99.90
58517;DHT22;44308;50.810;0.284;2022-12-29T05:42:31;10.30;99.90
58517;DHT22;44308;50.810;0.284;2022-12-29T05:44:56;10.60;99.90
58517;DHT22;44308;50.810;0.284;2022-12-29T05:47:23;10.40;99.90
58517;DHT22;44308;50.810;0.284;2022-12-29T05:49:49;10.70;99.90
58517;DHT22;44308;50.810;0.284;2022-12-29T05:52:15;10.80;99.90
58517;DHT22;44308;50.810;0.284;2022-12-29T05:54:40;10.30;99.90
58517;DHT22;44308;50.810;0.284;2022-12-29T05:57:25;10.30;99.90
58517;DHT22;44308;50.810;0.284;2022-12-29T05:59:51;10.50;99.90
58517;DHT22;44308;50.810;0.284;2022-12-29T06:02:17;10.80;99.90
58517;DHT22;44308;50.810;0.284;2022-12-29T06:04:42;10.70;99.90
58517;DHT22;44308;50.810;0.284;2022-12-29T06:07:10;10.90;99.90
58517;DHT22;44308;50.810;0.284;2022-12-29T06:09:36;10.40;99.90
58517;DHT22;44308;50.810;0.284;2022-12-29T06:12:02;10.40;99.90
58517;DHT22;44308;50.810;0.284;2022-12-29T06:14:27;11.00;99.90
58517;DHT22;44308;50.810;0.284;2022-12-29T06:16:53;11.00;99.90
58517;DHT22;44308;50.810;0.284;2022-12-29T06:19:19;11.00;99.90
58517;DHT22;44308;50.810;0.284;2022-12-29T06:21:45;10.90;99.90
58517;DHT22;44308;50.810;0.284;2022-12-29T06:24:10;10.90;99.90
58517;DHT22;44308;50.810;0.284;2022-12-29T06:26:36;10.90;99.90
58517;DHT22;44308;50.810;0.284;2022-12-29T06:29:02;10.70;99.90
58517;DHT22;44308;50.810;0.284;2022-12-29T06:31:28;10.90;99.90
58517;DHT22;44308;50.810;0.284;2022-12-29T06:33:54;10.40;99.90
58517;DHT22;44308;50.810;0.284;2022-12-29T06:36:22;10.80;99.90
58517;DHT22;44308;50.810;0.284;2022-12-29T06:38:47;10.70;99.90
58517;DHT22;44308;50.810;0.284;2022-12-29T06:41:13;10.50;99.90
58517;DHT22;44308;50.810;0.284;2022-12-29T06:43:39;10.20;99.90
58517;DHT22;44308;50.810;0.284;2022-12-29T06:46:05;10.60;99.90
58517;DHT22;44308;50.810;0.284;2022-12-29T06:48:31;10.50;99.90
58517;DHT22;44308;50.810;0.284;2022-12-29T06:50:57;10.50;99.90
58517;DHT22;44308;50.810;0.284;2022-12-29T06:53:22;10.40;99.90
58517;DHT22;44308;50.810;0.284;2022-12-29T06:55:49;9.90;99.90
58517;DHT22;44308;50.810;0.284;2022-12-29T06:58:15;9.90;99.90
58517;DHT22;44308;50.810;0.284;2022-12-29T07:00:41;9.90;99.90
58517;DHT22;44308;50.810;0.284;2022-12-29T07:03:07;10.00;99.90
58517;DHT22;44308;50.810;0.284;2022-12-29T07:05:34;10.00;99.90
58517;DHT22;44308;50.810;0.284;2022-12-29T07:08:00;9.80;99.90
58517;DHT22;44308;50.810;0.284;2022-12-29T07:10:26;10.30;99.90
58517;DHT22;44308;50.810;0.284;2022-12-29T07:12:52;10.00;99.90
58517;DHT22;44308;50.810;0.284;2022-12-29T07:15:38;10.10;99.90
58517;DHT22;44308;50.810;0.284;2022-12-29T07:18:04;9.80;99.90
58517;DHT22;44308;50.810;0.284;2022-12-29T07:20:31;9.80;99.90
58517;DHT22;44308;50.810;0.284;2022-12-29T07:22:57;10.10;99.90
58517;DHT22;44308;50.810;0.284;2022-12-29T07:25:42;9.90;99.90
58517;DHT22;44308;50.810;0.284;2022-12-29T07:28:08;10.10;99.90
58517;DHT22;44308;50.810;0.284;2022-12-29T07:30:36;9.80;99.90
58517;DHT22;44308;50.810;0.284;2022-12-29T07:33:01;9.80;99.90
58517;DHT22;44308;50.810;0.284;2022-12-29T07:35:29;9.90;99.90
58517;DHT22;44308;50.810;0.284;2022-12-29T07:37:55;9.80;99.90
58517;DHT22;44308;50.810;0.284;2022-12-29T07:40:20;10.10;99.90
58517;DHT22;44308;50.810;0.284;2022-12-29T07:42:46;10.10;99.90
58517;DHT22;44308;50.810;0.284;2022-12-29T07:45:12;9.50;99.90
58517;DHT22;44308;50.810;0.284;2022-12-29T07:47:38;9.60;99.90
58517;DHT22;44308;50.810;0.284;2022-12-29T07:50:04;9.90;99.90
58517;DHT22;44308;50.810;0.284;2022-12-29T07:52:30;10.00;99.90
58517;DHT22;44308;50.810;0.284;2022-12-29T07:54:55;9.90;99.90
58517;DHT22;44308;50.810;0.284;2022-12-29T07:57:40;9.60;99.90
58517;DHT22;44308;50.810;0.284;2022-12-29T08:00:06;9.80;99.90
58517;DHT22;44308;50.810;0.284;2022-12-29T08:02:32;9.70;99.90
58517;DHT22;44308;50.810;0.284;2022-12-29T08:04:58;9.70;99.90
58517;DHT22;44308;50.810;0.284;2022-12-29T08:07:24;9.40;99.90
58517;DHT22;44308;50.810;0.284;2022-12-29T08:09:50;9.80;99.90
58517;DHT22;44308;50.810;0.284;2022-12-29T08:12:16;9.70;99.90
58517;DHT22;44308;50.810;0.284;2022-12-29T08:14:42;9.30;99.90
58517;DHT22;44308;50.810;0.284;2022-12-29T08:17:07;9.60;99.90
58517;DHT22;44308;50.810;0.284;2022-12-29T08:19:33;9.20;99.90
58517;DHT22;44308;50.810;0.284;2022-12-29T08:21:59;9.20;99.90
58517;DHT22;44308;50.810;0.284;2022-12-29T08:24:25;9.60;99.90
58517;DHT22;44308;50.810;0.284;2022-12-29T08:26:51;9.20;99.90
58517;DHT22;44308;50.810;0.284;2022-12-29T08:29:17;9.20;99.90
58517;DHT22;44308;50.810;0.284;2022-12-29T08:31:43;9.70;99.90
58517;DHT22;44308;50.810;0.284;2022-12-29T08:34:09;9.40;99.90
58517;DHT22;44308;50.810;0.284;2022-12-29T08:36:35;10.00;99.90
58517;DHT22;44308;50.810;0.284;2022-12-29T08:39:00;9.70;99.90
58517;DHT22;44308;50.810;0.284;2022-12-29T08:41:29;9.70;99.90
58517;DHT22;44308;50.810;0.284;2022-12-29T08:43:54;10.00;99.90
58517;DHT22;44308;50.810;0.284;2022-12-29T08:46:20;10.20;99.90
58517;DHT22;44308;50.810;0.284;2022-12-29T08:48:46;9.90;99.90
58517;DHT22;44308;50.810;0.284;2022-12-29T08:51:12;10.20;99.90
58517;DHT22;44308;50.810;0.284;2022-12-29T08:53:38;10.30;99.90
58517;DHT22;44308;50.810;0.284;2022-12-29T08:56:04;10.10;99.90
58517;DHT22;44308;50.810;0.284;2022-12-29T08:58:30;10.00;99.90
58517;DHT22;44308;50.810;0.284;2022-12-29T09:00:57;10.30;99.90
58517;DHT22;44308;50.810;0.284;2022-12-29T09:03:26;10.40;99.90
58517;DHT22;44308;50.810;0.284;2022-12-29T09:05:54;10.10;99.90
58517;DHT22;44308;50.810;0.284;2022-12-29T09:08:20;10.00;99.90
58517;DHT22;44308;50.810;0.284;2022-12-29T09:10:47;10.10;99.90
58517;DHT22;44308;50.810;0.284;2022-12-29T09:13:13;10.30;99.90
58517;DHT22;44308;50.810;0.284;2022-12-29T09:15:39;9.90;99.90
58517;DHT22;44308;50.810;0.284;2022-12-29T09:18:06;10.40;99.90
58517;DHT22;44308;50.810;0.284;2022-12-29T09:20:32;10.20;99.90
58517;DHT22;44308;50.810;0.284;2022-12-29T09:22:58;10.10;99.90
58517;DHT22;44308;50.810;0.284;2022-12-29T09:25:24;10.40;99.90
58517;DHT22;44308;50.810;0.284;2022-12-29T09:27:50;10.40;99.90
58517;DHT22;44308;50.810;0.284;2022-12-29T09:30:19;10.40;99.90
58517;DHT22;44308;50.810;0.284;2022-12-29T09:32:45;10.40;99.90
58517;DHT22;44308;50.810;0.284;2022-12-29T09:35:12;10.70;99.90
58517;DHT22;44308;50.810;0.284;2022-12-29T09:37:38;10.70;99.90
58517;DHT22;44308;50.810;0.284;2022-12-29T09:40:05;10.70;99.90
58517;DHT22;44308;50.810;0.284;2022-12-29T09:45:10;10.70;99.90
58517;DHT22;44308;50.810;0.284;2022-12-29T09:47:40;10.60;99.90
58517;DHT22;44308;50.810;0.284;2022-12-29T09:50:24;10.70;99.90
58517;DHT22;44308;50.810;0.284;2022-12-29T09:52:54;10.60;99.90
58517;DHT22;44308;50.810;0.284;2022-12-29T09:55:46;10.70;99.90
58517;DHT22;44308;50.810;0.284;2022-12-29T10:03:24;10.40;99.90
58517;DHT22;44308;50.810;0.284;2022-12-29T10:15:08;9.90;99.90
58517;DHT22;44308;50.810;0.284;2022-12-29T10:17:36;10.20;99.90
58517;DHT22;44308;50.810;0.284;2022-12-29T10:20:27;10.10;99.90
58517;DHT22;44308;50.810;0.284;2022-12-29T10:25:55;10.50;99.90
58517;DHT22;44308;50.810;0.284;2022-12-29T10:31:00;10.50;99.90
58517;DHT22;44308;50.810;0.284;2022-12-29T10:33:34;10.10;99.90
58517;DHT22;44308;50.810;0.284;2022-12-29T10:36:18;10.00;99.90
58517;DHT22;44308;50.810;0.284;2022-12-29T10:38:54;10.30;99.90
58517;DHT22;44308;50.810;0.284;2022-12-29T10:41:28;10.00;99.90
58517;DHT22;44308;50.810;0.284;2022-12-29T10:43:57;9.90;99.90
58517;DHT22;44308;50.810;0.284;2022-12-29T10:46:28;9.90;99.90
58517;DHT22;44308;50.810;0.284;2022-12-29T10:48:54;10.10;99.90
58517;DHT22;44308;50.810;0.284;2022-12-29T10:51:22;10.30;99.90
58517;DHT22;44308;50.810;0.284;2022-12-29T10:56:58;10.30;99.90
58517;DHT22;44308;50.810;0.284;2022-12-29T10:59:39;10.20;99.90
58517;DHT22;44308;50.810;0.284;2022-12-29T11:07:20;10.10;99.90
58517;DHT22;44308;50.810;0.284;2022-12-29T11:09:46;10.30;99.90
58517;DHT22;44308;50.810;0.284;2022-12-29T11:14:47;10.50;99.90
58517;DHT22;44308;50.810;0.284;2022-12-29T11:17:17;10.60;99.90
58517;DHT22;44308;50.810;0.284;2022-12-29T11:19:43;10.50;99.90
58517;DHT22;44308;50.810;0.284;2022-12-29T11:22:22;10.70;99.90
58517;DHT22;44308;50.810;0.284;2022-12-29T11:24:49;10.50;99.90
58517;DHT22;44308;50.810;0.284;2022-12-29T11:27:21;10.60;99.90
58517;DHT22;44308;50.810;0.284;2022-12-29T11:29:49;10.70;99.90
58517;DHT22;44308;50.810;0.284;2022-12-29T11:32:24;10.70;99.90
58517;DHT22;44308;50.810;0.284;2022-12-29T11:34:51;10.80;99.90
58517;DHT22;44308;50.810;0.284;2022-12-29T11:40:18;10.60;99.90
58517;DHT22;44308;50.810;0.284;2022-12-29T11:42:55;10.70;99.90
58517;DHT22;44308;50.810;0.284;2022-12-29T11:45:25;10.60;99.90
58517;DHT22;44308;50.810;0.284;2022-12-29T11:48:01;10.60;99.90
58517;DHT22;44308;50.810;0.284;2022-12-29T11:50:33;10.70;99.90
58517;DHT22;44308;50.810;0.284;2022-12-29T11:53:01;10.80;99.90
58517;DHT22;44308;50.810;0.284;2022-12-29T11:55:29;10.70;99.90
58517;DHT22;44308;50.810;0.284;2022-12-29T11:57:57;10.80;99.90
58517;DHT22;44308;50.810;0.284;2022-12-29T12:00:24;10.70;99.90
58517;DHT22;44308;50.810;0.284;2022-12-29T12:03:04;10.90;99.90
58517;DHT22;44308;50.810;0.284;2022-12-29T12:05:49;10.80;99.90
58517;DHT22;44308;50.810;0.284;2022-12-29T12:08:45;10.50;99.90
58517;DHT22;44308;50.810;0.284;2022-12-29T12:11:26;10.80;99.90
58517;DHT22;44308;50.810;0.284;2022-12-29T12:14:22;10.70;99.90
58517;DHT22;44308;50.810;0.284;2022-12-29T12:23:25;10.70;99.90
58517;DHT22;44308;50.810;0.284;2022-12-29T12:28:50;10.40;99.90
58517;DHT22;44308;50.810;0.284;2022-12-29T12:31:27;10.40;99.90
58517;DHT22;44308;50.810;0.284;2022-12-29T12:34:02;10.30;99.90
58517;DHT22;44308;50.810;0.284;2022-12-29T12:53:27;7.80;99.90
58517;DHT22;44308;50.810;0.284;2022-12-29T12:56:27;8.00;99.90
58517;DHT22;44308;50.810;0.284;2022-12-29T12:59:19;8.10;99.90
58517;DHT22;44308;50.810;0.284;2022-12-29T13:07:50;8.70;99.90
58517;DHT22;44308;50.810;0.284;2022-12-29T13:17:02;9.20;99.90
58517;DHT22;44308;50.810;0.284;2022-12-29T13:20:10;9.00;99.90
58517;DHT22;44308;50.810;0.284;2022-12-29T13:23:13;9.60;99.90
58517;DHT22;44308;50.810;0.284;2022-12-29T13:34:40;10.40;99.90
58517;DHT22;44308;50.810;0.284;2022-12-29T13:37:19;10.60;99.90
58517;DHT22;44308;50.810;0.284;2022-12-29T13:39:49;10.40;99.90
58517;DHT22;44308;50.810;0.284;2022-12-29T13:42:18;10.60;99.90
58517;DHT22;44308;50.810;0.284;2022-12-29T13:47:42;10.50;99.90
58517;DHT22;44308;50.810;0.284;2022-12-29T13:50:15;10.10;99.90
58517;DHT22;44308;50.810;0.284;2022-12-29T13:52:49;10.40;99.90
58517;DHT22;44308;50.810;0.284;2022-12-29T13:55:37;10.20;99.90
58517;DHT22;44308;50.810;0.284;2022-12-29T13:58:28;10.30;99.90
58517;DHT22;44308;50.810;0.284;2022-12-29T14:01:04;10.10;99.90
58517;DHT22;44308;50.810;0.284;2022-12-29T14:06:31;10.20;99.90
58517;DHT22;44308;50.810;0.284;2022-12-29T14:11:50;10.10;99.90
58517;DHT22;44308;50.810;0.284;2022-12-29T14:14:29;10.10;99.90
58517;DHT22;44308;50.810;0.284;2022-12-29T14:17:09;10.20;99.90
58517;DHT22;44308;50.810;0.284;2022-12-29T14:19:40;10.10;99.90
58517;DHT22;44308;50.810;0.284;2022-12-29T14:22:11;10.10;99.90
58517;DHT22;44308;50.810;0.284;2022-12-29T14:24:43;10.00;99.90
58517;DHT22;44308;50.810;0.284;2022-12-29T14:35:00;10.00;99.90
58517;DHT22;44308;50.810;0.284;2022-12-29T14:37:45;10.00;99.90
58517;DHT22;44308;50.810;0.284;2022-12-29T14:40:22;10.00;99.90
58517;DHT22;44308;50.810;0.284;2022-12-29T14:42:51;9.80;99.90
58517;DHT22;44308;50.810;0.284;2022-12-29T14:47:49;9.80;99.90
58517;DHT22;44308;50.810;0.284;2022-12-29T14:50:26;9.80;99.90
58517;DHT22;44308;50.810;0.284;2022-12-29T14:53:01;9.80;99.90
58517;DHT22;44308;50.810;0.284;2022-12-29T14:55:44;9.80;99.90
58517;DHT22;44308;50.810;0.284;2022-12-29T14:58:20;9.70;99.90
58517;DHT22;44308;50.810;0.284;2022-12-29T15:00:46;9.80;99.90
58517;DHT22;44308;50.810;0.284;2022-12-29T15:03:22;9.60;99.90
58517;DHT22;44308;50.810;0.284;2022-12-29T15:06:04;9.70;99.90
58517;DHT22;44308;50.810;0.284;2022-12-29T15:08:36;9.80;99.90
58517;DHT22;44308;50.810;0.284;2022-12-29T15:11:24;9.80;99.90
58517;DHT22;44308;50.810;0.284;2022-12-29T15:13:55;9.50;99.90
58517;DHT22;44308;50.810;0.284;2022-12-29T15:18:52;9.40;99.90
58517;DHT22;44308;50.810;0.284;2022-12-29T15:21:21;9.40;99.90
58517;DHT22;44308;50.810;0.284;2022-12-29T15:23:48;9.50;99.90
58517;DHT22;44308;50.810;0.284;2022-12-29T15:26:14;9.20;99.90
58517;DHT22;44308;50.810;0.284;2022-12-29T15:28:46;9.20;99.90
58517;DHT22;44308;50.810;0.284;2022-12-29T15:31:21;9.50;99.90
58517;DHT22;44308;50.810;0.284;2022-12-29T15:33:54;9.20;99.90
58517;DHT22;44308;50.810;0.284;2022-12-29T15:36:25;9.50;99.90
58517;DHT22;44308;50.810;0.284;2022-12-29T15:38:52;9.20;99.90
58517;DHT22;44308;50.810;0.284;2022-12-29T15:41:34;9.50;99.90
58517;DHT22;44308;50.810;0.284;2022-12-29T15:44:28;9.50;99.90
58517;DHT22;44308;50.810;0.284;2022-12-29T15:46:56;9.60;99.90
58517;DHT22;44308;50.810;0.284;2022-12-29T15:49:21;9.60;99.90
58517;DHT22;44308;50.810;0.284;2022-12-29T15:51:49;9.50;99.90
58517;DHT22;44308;50.810;0.284;2022-12-29T15:54:23;9.50;99.90
58517;DHT22;44308;50.810;0.284;2022-12-29T15:56:49;9.50;99.90
58517;DHT22;44308;50.810;0.284;2022-12-29T15:59:32;9.40;99.90
58517;DHT22;44308;50.810;0.284;2022-12-29T16:02:02;9.40;99.90
58517;DHT22;44308;50.810;0.284;2022-12-29T16:04:30;9.40;99.90
58517;DHT22;44308;50.810;0.284;2022-12-29T16:09:34;9.20;99.90
58517;DHT22;44308;50.810;0.284;2022-12-29T16:12:20;9.30;99.90
58517;DHT22;44308;50.810;0.284;2022-12-29T16:14:50;9.40;99.90
58517;DHT22;44308;50.810;0.284;2022-12-29T16:17:21;9.00;99.90
58517;DHT22;44308;50.810;0.284;2022-12-29T16:19:54;9.30;99.90
58517;DHT22;44308;50.810;0.284;2022-12-29T16:22:36;9.50;99.90
58517;DHT22;44308;50.810;0.284;2022-12-29T16:27:41;9.50;99.90
58517;DHT22;44308;50.810;0.284;2022-12-29T16:30:19;9.40;99.90
58517;DHT22;44308;50.810;0.284;2022-12-29T16:32:48;9.40;99.90
58517;DHT22;44308;50.810;0.284;2022-12-29T16:37:46;9.40;99.90
58517;DHT22;44308;50.810;0.284;2022-12-29T16:40:28;9.00;99.90
58517;DHT22;44308;50.810;0.284;2022-12-29T16:43:02;8.90;99.90
58517;DHT22;44308;50.810;0.284;2022-12-29T16:50:40;8.80;99.90
58517;DHT22;44308;50.810;0.284;2022-12-29T16:53:35;9.10;99.90
58517;DHT22;44308;50.810;0.284;2022-12-29T16:56:13;8.80;99.90
58517;DHT22;44308;50.810;0.284;2022-12-29T16:58:40;8.70;99.90
58517;DHT22;44308;50.810;0.284;2022-12-29T17:01:06;9.10;99.90
58517;DHT22;44308;50.810;0.284;2022-12-29T17:03:43;9.00;99.90
58517;DHT22;44308;50.810;0.284;2022-12-29T17:06:21;8.60;99.90
58517;DHT22;44308;50.810;0.284;2022-12-29T17:08:48;8.60;99.90
58517;DHT22;44308;50.810;0.284;2022-12-29T17:11:27;8.50;99.90
58517;DHT22;44308;50.810;0.284;2022-12-29T17:14:36;8.80;99.90
58517;DHT22;44308;50.810;0.284;2022-12-29T17:17:09;8.70;99.90
58517;DHT22;44308;50.810;0.284;2022-12-29T17:19:37;9.00;99.90
58517;DHT22;44308;50.810;0.284;2022-12-29T17:22:27;8.90;99.90
58517;DHT22;44308;50.810;0.284;2022-12-29T17:24:54;9.00;99.90
58517;DHT22;44308;50.810;0.284;2022-12-29T17:27:28;8.60;99.90
58517;DHT22;44308;50.810;0.284;2022-12-29T17:29:57;9.00;99.90
58517;DHT22;44308;50.810;0.284;2022-12-29T17:32:24;8.60;99.90
58517;DHT22;44308;50.810;0.284;2022-12-29T17:34:50;9.00;99.90
58517;DHT22;44308;50.810;0.284;2022-12-29T17:37:26;9.10;99.90
58517;DHT22;44308;50.810;0.284;2022-12-29T17:39:53;9.20;99.90
58517;DHT22;44308;50.810;0.284;2022-12-29T17:42:19;8.90;99.90
58517;DHT22;44308;50.810;0.284;2022-12-29T17:44:45;9.30;99.90
58517;DHT22;44308;50.810;0.284;2022-12-29T17:47:11;8.90;99.90
58517;DHT22;44308;50.810;0.284;2022-12-29T17:49:37;9.10;99.90
58517;DHT22;44308;50.810;0.284;2022-12-29T17:52:03;8.90;99.90
58517;DHT22;44308;50.810;0.284;2022-12-29T17:54:29;8.90;99.90
58517;DHT22;44308;50.810;0.284;2022-12-29T17:56:55;8.90;99.90
58517;DHT22;44308;50.810;0.284;2022-12-29T17:59:21;9.10;99.90
58517;DHT22;44308;50.810;0.284;2022-12-29T18:01:48;9.20;99.90
58517;DHT22;44308;50.810;0.284;2022-12-29T18:04:18;9.00;99.90
58517;DHT22;44308;50.810;0.284;2022-12-29T18:06:45;9.00;99.90
58517;DHT22;44308;50.810;0.284;2022-12-29T18:09:12;9.00;99.90
58517;DHT22;44308;50.810;0.284;2022-12-29T18:11:40;9.20;99.90
58517;DHT22;44308;50.810;0.284;2022-12-29T18:14:16;8.90;99.90
58517;DHT22;44308;50.810;0.284;2022-12-29T18:16:42;8.80;99.90
58517;DHT22;44308;50.810;0.284;2022-12-29T18:19:08;9.10;99.90
58517;DHT22;44308;50.810;0.284;2022-12-29T18:21:35;8.70;99.90
58517;DHT22;44308;50.810;0.284;2022-12-29T18:24:01;8.70;99.90
58517;DHT22;44308;50.810;0.284;2022-12-29T18:26:30;9.20;99.90
58517;DHT22;44308;50.810;0.284;2022-12-29T18:28:58;9.20;99.90
58517;DHT22;44308;50.810;0.284;2022-12-29T18:31:28;9.20;99.90
58517;DHT22;44308;50.810;0.284;2022-12-29T18:33:56;9.00;99.90
58517;DHT22;44308;50.810;0.284;2022-12-29T18:36:22;8.90;99.90
58517;DHT22;44308;50.810;0.284;2022-12-29T18:38:48;9.00;99.90
58517;DHT22;44308;50.810;0.284;2022-12-29T18:43:45;9.10;99.90
58517;DHT22;44308;50.810;0.284;2022-12-29T18:46:13;9.40;99.90
58517;DHT22;44308;50.810;0.284;2022-12-29T18:48:39;9.00;99.90
58517;DHT22;44308;50.810;0.284;2022-12-29T18:51:06;9.00;99.90
58517;DHT22;44308;50.810;0.284;2022-12-29T18:53:32;9.40;99.90
58517;DHT22;44308;50.810;0.284;2022-12-29T18:56:01;9.10;99.90
58517;DHT22;44308;50.810;0.284;2022-12-29T18:58:27;9.00;99.90